Time;durP1;ratioP1;P1;durP2;ratioP2;P2;SDS_P1;SDS_P2;PMS_P1;PMS_P2;Temp;Humidity;BMP_temperature;BMP_pressure;BME280_temperature;BME280_humidity;BME280_pressure;Samples;Min_cycle;Max_cycle;Signal;HPM_P1;HPM_P2
2022/05/02 00:00:38;;;;;;;;;19.75;19.50;;;;;16.01;41.48;101518.41;5073575;28;45416;-76
2022/05/02 00:03:04;;;;;;;;;20.50;19.75;;;;;16.00;41.58;101519.34;5067327;28;46099;-76
2022/05/02 00:05:29;;;;;;;;;22.00;20.00;;;;;16.00;41.53;101522.03;5063154;28;45431;-76
2022/05/02 00:07:54;;;;;;;;;25.75;22.25;;;;;15.98;41.70;101521.22;5068839;28;46847;-77
2022/05/02 00:10:19;;;;;;;;;25.50;20.50;;;;;15.95;41.50;101512.41;5059686;28;45780;-76
2022/05/02 00:12:45;;;;;;;;;27.00;26.25;;;;;15.95;41.72;101505.19;5059660;28;46408;-77
2022/05/02 00:15:11;;;;;;;;;19.00;19.00;;;;;15.94;41.47;101508.84;5059545;28;45805;-76
2022/05/02 00:20:21;;;;;;;;;18.75;18.50;;;;;15.86;41.71;101495.72;5068864;28;45531;-77
2022/05/02 00:22:46;;;;;;;;;18.50;18.50;;;;;15.90;41.93;101510.81;5059056;28;46102;-77
2022/05/02 00:25:12;;;;;;;;;25.00;19.00;;;;;15.90;41.99;101504.53;5065011;28;45374;-77
2022/05/02 00:27:42;;;;;;;;;22.75;19.00;;;;;15.86;41.84;101497.53;5079743;28;45433;-77
2022/05/02 00:30:10;;;;;;;;;17.50;16.50;;;;;15.85;41.80;101504.72;5064115;27;45450;-77
2022/05/02 00:32:35;;;;;;;;;20.00;18.00;;;;;15.84;41.79;101502.97;5079917;28;47447;-77
2022/05/02 00:35:01;;;;;;;;;19.00;17.50;;;;;15.85;42.03;101502.03;5060363;28;45416;-77
2022/05/02 00:37:26;;;;;;;;;16.50;15.25;;;;;15.74;42.02;101475.53;5059497;28;45445;-77
2022/05/02 00:39:52;;;;;;;;;15.75;14.00;;;;;15.85;42.21;101493.94;5059483;28;45596;-77
2022/05/02 00:42:20;;;;;;;;;14.50;14.00;;;;;15.83;41.93;101493.13;5079270;28;45985;-77
2022/05/02 00:44:45;;;;;;;;;19.25;16.00;;;;;15.85;41.97;101491.25;5059860;28;45398;-77
2022/05/02 00:47:11;;;;;;;;;20.00;19.00;;;;;15.81;42.27;101484.25;5063409;28;45759;-77
2022/05/02 00:49:39;;;;;;;;;18.50;17.25;;;;;15.85;41.98;101485.88;5059842;28;45727;-77
2022/05/02 00:52:05;;;;;;;;;16.75;16.75;;;;;15.86;42.23;101481.38;5059065;28;45481;-77
2022/05/02 00:54:32;;;;;;;;;19.00;19.00;;;;;15.82;42.30;101474.34;5058929;28;45404;-77
2022/05/02 00:56:59;;;;;;;;;16.50;16.50;;;;;15.81;42.11;101475.31;5058730;28;45529;-77
2022/05/02 00:59:24;;;;;;;;;16.75;16.25;;;;;15.76;42.09;101472.81;5059116;28;45514;-77
2022/05/02 01:01:50;;;;;;;;;17.75;17.75;;;;;15.77;42.24;101468.28;5059002;28;46017;-77
2022/05/02 01:04:15;;;;;;;;;15.50;14.50;;;;;15.74;42.19;101464.78;5069986;28;45382;-77
2022/05/02 01:09:25;;;;;;;;;20.00;18.00;;;;;15.71;42.34;101464.03;5079058;28;45420;-77
2022/05/02 01:11:50;;;;;;;;;15.50;15.00;;;;;15.73;42.26;101457.63;5062119;28;45685;-77
2022/05/02 01:14:16;;;;;;;;;20.00;19.00;;;;;15.71;42.35;101461.34;5058835;28;45371;-77
2022/05/02 01:16:41;;;;;;;;;18.75;16.75;;;;;15.67;42.34;101451.63;5058311;28;45363;-77
2022/05/02 01:19:06;;;;;;;;;19.50;17.25;;;;;15.66;42.33;101452.59;5068674;28;45364;-77
2022/05/02 01:21:32;;;;;;;;;18.00;17.00;;;;;15.64;42.47;101443.72;5061747;28;45525;-77
2022/05/02 01:24:00;;;;;;;;;15.75;14.75;;;;;15.65;42.35;101456.22;5058537;28;45371;-77
2022/05/02 01:26:26;;;;;;;;;19.25;18.00;;;;;15.61;42.43;101438.44;5075457;28;45460;-77
2022/05/02 01:28:55;;;;;;;;;17.75;16.00;;;;;15.61;42.42;101449.22;5068101;28;45444;-77
2022/05/02 01:31:21;;;;;;;;;19.25;16.75;;;;;15.57;42.35;101446.66;5073560;27;45824;-77
2022/05/02 01:33:48;;;;;;;;;17.00;16.00;;;;;15.59;42.66;101457.34;5070259;28;45422;-77
2022/05/02 01:36:14;;;;;;;;;18.00;18.00;;;;;15.58;42.59;101450.22;5058312;28;45480;-77
2022/05/02 01:38:40;;;;;;;;;20.00;19.00;;;;;15.57;42.70;101448.47;5058464;28;45533;-77
2022/05/02 01:41:06;;;;;;;;;17.00;15.25;;;;;15.56;42.84;101458.34;5069324;28;46214;-77
2022/05/02 01:43:33;;;;;;;;;18.25;15.00;;;;;15.50;42.59;101439.78;5069532;28;45686;-77
2022/05/02 01:45:59;;;;;;;;;19.00;17.50;;;;;15.56;42.83;101458.34;5058297;28;45423;-77
2022/05/02 01:48:25;;;;;;;;;18.00;17.25;;;;;15.55;42.78;101453.03;5065476;28;45492;-77
2022/05/02 01:50:50;;;;;;;;;19.00;19.00;;;;;15.51;42.70;101452.28;5061567;28;46109;-77
2022/05/02 01:53:16;;;;;;;;;19.00;17.00;;;;;15.49;42.64;101453.31;5058328;28;45303;-77
2022/05/02 01:55:41;;;;;;;;;19.75;19.75;;;;;15.47;42.77;101452.47;5058179;28;45596;-77
2022/05/02 01:58:07;;;;;;;;;21.50;19.25;;;;;15.43;42.93;101446.34;5058137;28;45598;-77
2022/05/02 02:00:32;;;;;;;;;21.50;19.00;;;;;15.42;43.00;101451.78;5057957;28;46934;-77
2022/05/02 02:02:57;;;;;;;;;19.25;19.25;;;;;15.41;43.12;101452.75;5065592;28;45494;-77
2022/05/02 02:08:07;;;;;;;;;20.50;18.75;;;;;15.38;43.09;101446.56;5056888;28;45406;-77
2022/05/02 02:10:32;;;;;;;;;19.00;19.00;;;;;15.42;43.18;101452.69;5056072;28;46191;-77
2022/05/02 02:12:57;;;;;;;;;21.75;21.75;;;;;15.42;42.97;101452.69;5063569;28;45609;-77
2022/05/02 02:15:23;;;;;;;;;21.50;19.75;;;;;15.38;42.83;101442.97;5057944;28;45369;-77
2022/05/02 02:17:48;;;;;;;;;22.75;21.50;;;;;15.37;42.95;101447.47;5057948;28;45326;-77
2022/05/02 02:20:13;;;;;;;;;21.00;17.50;;;;;15.37;42.88;101443.94;5057576;28;45596;-77
2022/05/02 02:22:39;;;;;;;;;22.50;21.25;;;;;15.40;42.94;101450.97;5057718;28;45469;-77
2022/05/02 02:25:05;;;;;;;;;20.00;18.50;;;;;15.32;42.67;101443.25;5057578;28;45503;-77
2022/05/02 02:27:32;;;;;;;;;21.25;18.25;;;;;15.28;43.02;101438.91;5057620;28;45545;-77
2022/05/02 02:29:58;;;;;;;;;20.25;20.25;;;;;15.24;43.14;101446.22;5067983;27;46315;-77
2022/05/02 02:32:23;;;;;;;;;20.50;20.00;;;;;15.18;42.83;101441.09;5078315;28;45468;-77
2022/05/02 02:34:49;;;;;;;;;20.00;18.50;;;;;15.16;43.22;101434.91;5060302;28;45441;-77
2022/05/02 02:37:15;;;;;;;;;18.75;18.75;;;;;15.16;43.02;101434.91;5057557;28;45382;-77
2022/05/02 02:39:44;;;;;;;;;21.50;19.50;;;;;15.16;43.19;101434.91;5056781;28;46915;-77
2022/05/02 02:42:10;;;;;;;;;21.50;20.25;;;;;15.15;43.11;101425.97;5057393;28;45359;-77
2022/05/02 02:44:35;;;;;;;;;19.00;18.75;;;;;15.04;43.28;101417.47;5056454;28;45529;-77
2022/05/02 02:47:00;;;;;;;;;24.75;22.50;;;;;15.14;43.42;101434.09;5055970;28;45635;-77
2022/05/02 02:49:26;;;;;;;;;24.25;21.75;;;;;15.13;43.20;101426.97;5057077;28;46030;-77
2022/05/02 02:51:51;;;;;;;;;22.75;22.75;;;;;15.08;43.02;101421.75;5057204;28;45505;-77
2022/05/02 02:54:17;;;;;;;;;22.50;21.25;;;;;15.10;43.34;101427.97;5057463;28;45840;-77
2022/05/02 02:56:42;;;;;;;;;26.00;23.25;;;;;15.10;43.64;101427.97;5057077;28;45504;-77
2022/05/02 02:59:08;;;;;;;;;21.25;20.25;;;;;15.08;43.49;101427.13;5057044;28;45431;-77
2022/05/02 03:01:34;;;;;;;;;24.00;24.00;;;;;15.06;43.66;101429.03;5057357;28;45468;-77
2022/05/02 03:06:01;;;;;;;;;27.00;25.50;;;;;15.05;43.32;101421.00;5069902;28;45421;-77
2022/05/02 03:06:44;;;;;;;;;22.25;21.00;;;;;15.00;43.74;101421.19;5060355;28;45347;-77
2022/05/02 03:09:10;;;;;;;;;30.00;28.25;;;;;15.03;43.54;101420.22;5064700;28;45660;-77
2022/05/02 03:11:35;;;;;;;;;22.25;21.75;;;;;14.99;43.54;101419.47;5064962;27;45339;-77
2022/05/02 03:14:00;;;;;;;;;24.50;23.00;;;;;15.01;43.37;101415.75;5093101;27;45463;-77
2022/05/02 03:16:26;;;;;;;;;25.75;25.50;;;;;14.98;43.62;101412.31;5067878;28;45375;-77
2022/05/02 03:18:51;;;;;;;;;21.50;21.50;;;;;15.00;43.45;101413.13;5082267;27;46446;-77
2022/05/02 03:21:16;;;;;;;;;22.00;22.00;;;;;14.97;43.64;101405.22;5067393;28;45230;-77
2022/05/02 03:23:42;;;;;;;;;27.25;26.75;;;;;14.93;43.38;101400.88;5062502;28;45419;-76
2022/05/02 03:26:07;;;;;;;;;22.50;22.00;;;;;14.87;43.31;101404.69;5074139;28;45502;-77
2022/05/02 03:28:32;;;;;;;;;23.00;23.00;;;;;14.88;43.64;101402.88;5061874;28;45177;-77
2022/05/02 03:30:58;;;;;;;;;29.25;24.50;;;;;14.88;43.16;101405.56;5076622;27;45285;-77
2022/05/02 03:33:23;;;;;;;;;30.00;29.25;;;;;14.87;43.65;101401.13;5076695;28;45334;-77
2022/05/02 03:35:48;;;;;;;;;23.75;21.25;;;;;14.86;43.56;101412.81;5062217;28;45319;-77
2022/05/02 03:38:14;;;;;;;;;22.75;20.50;;;;;14.82;43.65;101399.50;5061749;28;45385;-77
2022/05/02 03:40:39;;;;;;;;;27.00;25.25;;;;;14.88;43.47;101408.25;5069248;28;45266;-77
2022/05/02 03:43:04;;;;;;;;;25.25;24.25;;;;;14.84;43.92;101398.56;5078560;28;45173;-77
2022/05/02 03:45:30;;;;;;;;;24.75;24.75;;;;;14.85;43.70;101408.38;5070144;28;45393;-77
2022/05/02 03:47:55;;;;;;;;;19.75;19.50;;;;;14.84;44.02;101403.94;5073732;28;47021;-76
2022/05/02 03:50:21;;;;;;;;;26.50;23.00;;;;;14.83;43.91;101400.38;5074286;28;45439;-77
2022/05/02 03:52:46;;;;;;;;;25.00;23.00;;;;;14.78;43.71;101397.88;5062633;28;45393;-77
2022/05/02 03:55:11;;;;;;;;;27.00;25.50;;;;;14.82;43.64;101406.69;5066716;28;45339;-77
2022/05/02 03:57:37;;;;;;;;;24.00;23.75;;;;;14.77;43.74;101393.44;5074519;28;45391;-77
2022/05/02 04:00:03;;;;;;;;;23.25;23.00;;;;;14.79;43.57;101396.06;5061535;28;45286;-77
2022/05/02 04:02:28;;;;;;;;;24.00;23.00;;;;;14.80;43.85;101397.78;5065505;28;45273;-77
2022/05/02 04:04:53;;;;;;;;;27.25;24.00;;;;;14.78;43.97;101399.69;5068602;28;45434;-77
2022/05/02 04:07:19;;;;;;;;;23.00;21.00;;;;;14.80;43.91;101403.16;5060954;28;45381;-77
2022/05/02 04:09:44;;;;;;;;;28.00;24.00;;;;;14.75;44.04;101386.34;5061657;28;45360;-77
2022/05/02 04:12:10;;;;;;;;;26.75;26.50;;;;;14.78;44.08;101395.19;5061446;28;45481;-77
2022/05/02 04:14:35;;;;;;;;;21.75;21.75;;;;;14.78;44.17;101399.69;5073124;28;45260;-77
2022/05/02 04:17:00;;;;;;;;;23.00;21.25;;;;;14.78;43.90;101395.19;5075035;28;45323;-77
2022/05/02 04:19:26;;;;;;;;;26.50;24.00;;;;;14.80;43.86;101403.16;5061414;28;45214;-76
2022/05/02 04:21:51;;;;;;;;;24.50;23.25;;;;;14.80;44.26;101403.16;5060994;28;45232;-77
2022/05/02 04:24:17;;;;;;;;;21.00;21.00;;;;;14.78;44.02;101400.56;5071282;28;45454;-77
2022/05/02 04:26:43;;;;;;;;;22.00;20.00;;;;;14.75;43.74;101400.69;5072240;28;46048;-77
2022/05/02 04:29:08;;;;;;;;;23.00;22.50;;;;;14.74;44.14;101392.69;5066686;28;45144;-77
2022/05/02 04:31:33;;;;;;;;;27.25;24.50;;;;;14.71;43.78;101390.13;5080720;27;45317;-78
2022/05/02 04:33:59;;;;;;;;;24.75;24.75;;;;;14.71;43.90;101396.34;5071343;28;45307;-78
2022/05/02 04:36:24;;;;;;;;;20.50;20.25;;;;;14.72;44.55;101392.75;5060621;28;46216;-77
2022/05/02 04:38:49;;;;;;;;;26.25;22.25;;;;;14.73;44.36;101398.97;5061276;28;45739;-78
2022/05/02 04:41:16;;;;;;;;;24.50;20.75;;;;;14.73;44.28;101405.22;5073474;28;45282;-78
2022/05/02 04:43:41;;;;;;;;;26.25;23.25;;;;;14.68;44.16;101396.47;5071089;28;45374;-78
2022/05/02 04:46:07;;;;;;;;;31.75;28.25;;;;;14.65;44.14;101388.56;5060773;28;46155;-78
2022/05/02 04:48:33;;;;;;;;;23.25;21.75;;;;;14.70;44.31;101401.78;5060470;28;45398;-78
2022/05/02 04:50:58;;;;;;;;;22.00;21.75;;;;;14.71;44.01;101406.22;5060909;28;45330;-78
2022/05/02 04:53:23;;;;;;;;;30.75;27.00;;;;;14.69;44.04;101402.75;5060758;28;45336;-78
2022/05/02 04:55:49;;;;;;;;;24.75;24.50;;;;;14.61;44.06;101392.28;5068936;28;45364;-78
2022/05/02 04:58:15;;;;;;;;;23.00;23.00;;;;;14.66;43.96;101401.03;5060584;28;45360;-78
2022/05/02 05:00:40;;;;;;;;;27.00;25.75;;;;;14.63;43.97;101399.34;5060746;28;45413;-78
2022/05/02 05:03:06;;;;;;;;;23.50;22.75;;;;;14.60;44.44;101395.88;5067957;28;45327;-78
2022/05/02 05:05:31;;;;;;;;;26.25;25.50;;;;;14.62;44.58;101399.41;5073432;28;45939;-78
2022/05/02 05:07:57;;;;;;;;;25.50;23.75;;;;;14.60;44.52;101390.50;5069882;28;45255;-78
2022/05/02 05:10:22;;;;;;;;;25.25;24.25;;;;;14.62;44.48;101397.59;5042084;28;45253;-78
2022/05/02 05:13:07;;;;;;;;;24.00;22.75;;;;;14.64;44.70;101400.22;5060639;28;45244;-78
2022/05/02 05:18:48;;;;;;;;;26.50;25.25;;;;;14.64;44.46;101400.22;5060448;28;45678;-78
2022/05/02 05:21:17;;;;;;;;;29.25;28.25;;;;;14.61;44.56;101403.03;5060342;28;45240;-78
2022/05/02 05:24:21;;;;;;;;;31.00;28.00;;;;;14.54;44.62;101396.13;5065869;28;45299;-78
2022/05/02 05:26:53;;;;;;;;;28.00;24.75;;;;;14.56;44.54;101404.97;5071866;28;45393;-78
2022/05/02 05:29:54;;;;;;;;;26.75;26.75;;;;;14.55;44.72;101401.44;5059949;28;45398;-78
2022/05/02 05:32:22;;;;;;;;;27.25;25.75;;;;;14.55;44.52;101398.75;5065286;28;45428;-78
2022/05/02 05:35:24;;;;;;;;;39.00;33.00;;;;;14.56;44.57;101405.84;5080369;28;45132;-78
2022/05/02 05:38:00;;;;;;;;;26.50;26.25;;;;;14.55;44.72;101411.28;5055976;28;45486;-82
2022/05/02 05:40:42;;;;;;;;;32.25;30.25;;;;;14.51;44.52;101397.09;5066047;28;45154;-78
2022/05/02 05:43:16;;;;;;;;;27.75;25.75;;;;;14.51;44.50;101404.28;5066378;28;45258;-80
2022/05/02 05:46:00;;;;;;;;;28.75;26.75;;;;;14.49;44.85;101403.47;5059591;28;45618;-76
2022/05/02 05:48:28;;;;;;;;;30.75;25.50;;;;;14.48;44.87;101407.94;5060147;28;45532;-77
2022/05/02 05:51:19;;;;;;;;;29.00;27.75;;;;;14.50;44.91;101399.84;5067376;28;45774;-83
2022/05/02 05:54:33;;;;;;;;;26.50;24.75;;;;;14.50;44.61;101406.09;5075069;28;45421;-81
2022/05/02 05:57:31;;;;;;;;;29.50;29.00;;;;;14.45;44.78;101394.66;5074297;28;45436;-79
2022/05/02 06:00:12;;;;;;;;;37.75;31.50;;;;;14.42;45.02;101395.63;5069004;28;46301;-79
2022/05/02 06:03:05;;;;;;;;;32.50;30.50;;;;;14.44;45.11;101398.28;5061625;28;45366;-80
2022/05/02 06:05:37;;;;;;;;;31.00;30.25;;;;;14.44;45.00;101404.50;5060441;28;45360;-80
2022/05/02 06:08:08;;;;;;;;;33.00;31.25;;;;;14.46;45.00;101404.44;5077248;28;45444;-82
2022/05/02 06:10:35;;;;;;;;;36.00;31.50;;;;;14.46;44.85;101399.94;5065632;28;46414;-82
2022/05/02 06:13:02;;;;;;;;;30.50;28.00;;;;;14.51;44.92;101404.28;5069556;28;45472;-82
2022/05/02 06:18:27;;;;;;;;;29.25;28.50;;;;;14.54;44.96;101417.59;5059564;28;45287;-81
2022/05/02 06:20:57;;;;;;;;;35.50;32.25;;;;;14.54;44.93;101412.22;5059150;28;45636;-83
2022/05/02 06:23:25;;;;;;;;;32.50;31.00;;;;;14.54;45.07;101418.47;5067479;28;45936;-84
2022/05/02 06:25:53;;;;;;;;;35.25;31.50;;;;;14.50;44.75;101416.84;5079724;28;45255;-82
2022/05/02 06:28:22;;;;;;;;;36.25;33.00;;;;;14.44;44.99;101407.19;5064338;28;45288;-82
2022/05/02 06:30:51;;;;;;;;;29.00;26.00;;;;;14.49;44.92;101417.78;5068759;27;45411;-81
2022/05/02 06:33:20;;;;;;;;;40.75;34.00;;;;;14.52;45.18;101414.09;5061479;28;45474;-79
2022/05/02 06:36:17;;;;;;;;;42.00;36.00;;;;;14.53;45.40;101407.78;5071034;28;45401;-75
2022/05/02 06:39:04;;;;;;;;;35.50;33.25;;;;;14.54;45.28;101406.84;5060745;28;45383;-69
2022/05/02 06:41:38;;;;;;;;;37.75;33.75;;;;;14.58;45.40;101413.84;5069609;28;47198;-77
2022/05/02 06:44:37;;;;;;;;;41.25;33.00;;;;;14.55;45.40;101412.19;5071928;28;45870;-77
2022/05/02 06:47:39;;;;;;;;;38.25;34.25;;;;;14.59;44.98;101412.97;5054472;27;45835;-77
2022/05/02 06:50:07;;;;;;;;;41.00;34.75;;;;;14.57;45.11;101413.00;5075969;27;45726;-76
2022/05/02 06:52:39;;;;;;;;;45.25;34.50;;;;;14.60;45.02;101415.59;5069600;27;46931;-77
2022/05/02 06:55:24;;;;;;;;;34.75;32.25;;;;;14.61;45.07;101424.53;5066042;27;45516;-76
2022/05/02 06:58:05;;;;;;;;;37.75;33.75;;;;;14.61;45.12;101422.69;5061468;28;45453;-77
2022/05/02 07:00:37;;;;;;;;;36.25;33.50;;;;;14.64;45.34;101416.34;5068241;28;45628;-76
2022/05/02 07:03:14;;;;;;;;;35.00;30.50;;;;;14.68;45.15;101422.47;5064746;28;46304;-77
2022/05/02 07:06:01;;;;;;;;;38.25;34.75;;;;;14.64;45.01;101416.34;5061750;28;45768;-76
2022/05/02 07:08:28;;;;;;;;;33.25;32.00;;;;;14.66;45.29;101421.66;5064653;28;45664;-77
2022/05/02 07:11:03;;;;;;;;;36.75;34.25;;;;;14.65;45.43;101415.41;5059777;28;45486;-77
2022/05/02 07:13:29;;;;;;;;;39.00;35.00;;;;;14.65;45.08;101418.09;5060829;28;46079;-77
2022/05/02 07:16:06;;;;;;;;;40.00;35.75;;;;;14.61;45.29;101417.31;5061329;28;45397;-76
2022/05/02 07:18:45;;;;;;;;;40.00;34.25;;;;;14.64;45.57;101411.84;5060975;28;45382;-77
2022/05/02 07:21:34;;;;;;;;;40.75;35.25;;;;;14.67;45.48;101418.03;5061296;28;45536;-76
2022/05/02 07:24:14;;;;;;;;;36.25;33.50;;;;;14.65;45.35;101420.78;5057807;28;46385;-77
2022/05/02 07:26:42;;;;;;;;;47.75;39.75;;;;;14.68;45.33;101417.09;5060895;28;45652;-77
2022/05/02 07:29:08;;;;;;;;;36.50;31.25;;;;;14.64;45.55;101413.66;5061887;28;45401;-77
2022/05/02 07:31:34;;;;;;;;;48.50;36.75;;;;;14.69;45.53;101421.56;5081663;28;45569;-76
2022/05/02 07:34:01;;;;;;;;;37.75;33.75;;;;;14.66;45.55;101413.59;5074616;28;45544;-77
2022/05/02 07:36:28;;;;;;;;;33.00;31.00;;;;;14.72;45.45;101422.31;5061327;27;45379;-78
2022/05/02 07:39:04;;;;;;;;;37.25;34.00;;;;;14.75;45.38;101427.56;5078905;27;45485;-77
2022/05/02 07:41:32;;;;;;;;;41.00;35.75;;;;;14.75;45.36;101423.97;5075911;28;45441;-76
2022/05/02 07:44:06;;;;;;;;;38.00;33.00;;;;;14.74;45.50;101433.00;5067479;28;46249;-77
2022/05/02 07:46:39;;;;;;;;;42.50;36.00;;;;;14.64;45.48;101419.91;5070689;27;45457;-77
2022/05/02 07:49:08;;;;;;;;;39.00;33.75;;;;;14.67;45.89;101423.41;5075493;28;44759;-77
2022/05/02 07:51:40;;;;;;;;;38.50;34.00;;;;;14.70;45.80;101420.59;5061110;28;45461;-76
2022/05/02 07:54:11;;;;;;;;;46.00;37.75;;;;;14.74;45.83;101430.31;5060658;28;46456;-76
2022/05/02 07:56:39;;;;;;;;;46.50;37.00;;;;;14.61;45.79;101403.03;5061536;27;45398;-76
2022/05/02 07:59:07;;;;;;;;;34.00;33.00;;;;;14.74;46.00;101420.41;5071138;28;45330;-75
2022/05/02 08:01:33;;;;;;;;;41.25;34.75;;;;;14.77;45.50;101420.31;5065575;28;45616;-75
2022/05/02 08:03:59;;;;;;;;;39.25;34.75;;;;;14.81;45.49;101423.75;5063796;27;45437;-76
2022/05/02 08:06:27;;;;;;;;;38.50;35.25;;;;;14.88;45.69;101424.38;5065350;27;45319;-77
2022/05/02 08:09:28;;;;;;;;;43.25;37.75;;;;;14.91;45.71;101424.25;5079689;28;45398;-77
2022/05/02 08:12:30;;;;;;;;;42.75;36.00;;;;;14.90;45.72;101427.88;5048267;28;45690;-79
2022/05/02 08:15:06;;;;;;;;;44.25;35.25;;;;;14.89;45.67;101429.69;5061129;28;45398;-77
2022/05/02 08:17:47;;;;;;;;;41.75;35.75;;;;;14.91;45.81;101422.44;5074017;27;45440;-75
2022/05/02 08:20:34;;;;;;;;;46.25;39.00;;;;;14.98;45.74;101423.06;5060384;28;45343;-76
2022/05/02 08:29:30;;;;;;;;;41.50;36.50;;;;;15.13;45.45;101416.19;5069025;27;46230;-67
2022/05/02 08:32:10;;;;;;;;;40.75;35.75;;;;;15.15;45.61;101419.69;5080688;28;45414;-67
2022/05/02 08:34:38;;;;;;;;;39.25;34.00;;;;;15.22;45.35;101414.94;5060554;28;45382;-67
2022/05/02 08:37:34;;;;;;;;;42.50;37.00;;;;;15.29;45.21;101411.09;5063543;27;46247;-67
2022/05/02 08:40:42;;;;;;;;;47.75;37.00;;;;;15.32;45.10;101421.72;5062287;28;45414;-67
2022/05/02 08:43:29;;;;;;;;;47.75;39.50;;;;;15.29;45.20;101421.84;5058207;28;45608;-67
2022/05/02 08:46:42;;;;;;;;;47.75;39.25;;;;;15.27;45.27;101413.84;5071383;28;45416;-69
2022/05/02 08:49:39;;;;;;;;;47.75;40.00;;;;;15.18;45.31;101396.28;5064461;28;47447;-68
2022/05/02 08:52:39;;;;;;;;;48.75;40.00;;;;;15.29;45.31;101420.03;5047193;27;46112;-67
2022/05/02 08:55:08;;;;;;;;;48.75;39.25;;;;;15.33;45.51;101420.75;5074181;28;45361;-68
2022/05/02 08:57:43;;;;;;;;;50.50;41.00;;;;;15.34;45.40;101417.16;5073609;27;45787;-67
2022/05/02 09:00:11;;;;;;;;;50.00;42.00;;;;;15.34;44.99;101425.22;5059245;28;45434;-67
2022/05/02 09:02:51;;;;;;;;;54.00;45.00;;;;;15.28;45.37;101415.56;5061311;28;45923;-67
2022/05/02 09:05:17;;;;;;;;;43.25;36.00;;;;;15.32;45.88;101419.03;5068958;27;45483;-67
2022/05/02 09:08:09;;;;;;;;;50.25;40.25;;;;;15.33;45.58;101423.47;5086005;27;45429;-67
2022/05/02 09:10:47;;;;;;;;;50.75;41.25;;;;;15.37;46.00;101415.19;5061677;28;45997;-68
2022/05/02 09:13:38;;;;;;;;;51.00;43.00;;;;;15.37;45.83;101403.56;5061552;28;45749;-67
2022/05/02 09:16:25;;;;;;;;;52.50;41.75;;;;;15.43;45.56;101419.44;5069652;27;45365;-67
2022/05/02 09:19:18;;;;;;;;;47.00;40.00;;;;;15.49;45.70;101416.50;5078601;28;45330;-70
2022/05/02 09:22:21;;;;;;;;;49.25;39.75;;;;;15.55;45.57;101408.19;5059291;28;45332;-70
2022/05/02 09:25:02;;;;;;;;;46.00;39.50;;;;;15.59;45.49;101414.28;5068287;28;45372;-69
2022/05/02 09:27:33;;;;;;;;;47.00;39.75;;;;;15.62;45.61;101402.50;5087533;27;45419;-69
2022/05/02 09:30:21;;;;;;;;;46.00;38.00;;;;;15.66;45.66;101407.69;5068909;27;45904;-70
2022/05/02 09:33:11;;;;;;;;;47.75;41.50;;;;;15.72;45.92;101412.81;5079166;28;45605;-67
2022/05/02 09:36:06;;;;;;;;;44.00;36.75;;;;;15.77;45.64;101399.22;5076627;28;45397;-67
2022/05/02 09:38:51;;;;;;;;;49.75;40.75;;;;;15.83;45.91;101400.75;5072199;27;45337;-68
2022/05/02 09:42:01;;;;;;;;;44.75;38.50;;;;;15.92;45.92;101394.94;5061244;27;45776;-70
2022/05/02 09:50:43;;;;;;;;;43.75;37.25;;;;;16.01;45.73;101394.53;5067775;27;45567;-70
2022/05/02 09:53:55;;;;;;;;;43.25;35.25;;;;;16.05;45.63;101392.59;5071177;28;45421;-70
2022/05/02 09:56:38;;;;;;;;;48.50;40.00;;;;;16.14;45.61;101394.88;5075285;27;45472;-70
2022/05/02 09:59:21;;;;;;;;;43.25;37.00;;;;;16.21;45.65;101379.31;5068092;28;45512;-70
2022/05/02 10:01:49;;;;;;;;;48.25;38.75;;;;;16.28;45.74;101383.47;5072185;27;45377;-70
2022/05/02 10:04:18;;;;;;;;;45.00;36.75;;;;;16.35;45.57;101374.16;5060520;27;45469;-69
2022/05/02 10:06:54;;;;;;;;;45.50;37.25;;;;;16.40;45.52;101384.72;5071559;27;46377;-69
2022/05/02 10:09:50;;;;;;;;;38.75;33.75;;;;;16.47;46.33;101378.97;5062223;28;45346;-69
2022/05/02 10:12:37;;;;;;;;;47.00;40.00;;;;;16.61;45.42;101380.16;5071092;27;45308;-69
2022/05/02 10:15:23;;;;;;;;;37.25;33.25;;;;;16.68;45.43;101384.28;5071643;28;45590;-69
2022/05/02 10:17:54;;;;;;;;;41.25;35.00;;;;;16.76;45.08;101379.41;5067634;27;45486;-69
2022/05/02 10:20:21;;;;;;;;;40.00;35.50;;;;;16.78;45.03;101372.09;5068698;28;45666;-69
2022/05/02 10:22:58;;;;;;;;;46.50;38.00;;;;;16.87;45.02;101373.50;5062710;28;45562;-70
2022/05/02 10:25:39;;;;;;;;;44.50;34.75;;;;;16.90;45.09;101367.09;5074591;28;46284;-70
2022/05/02 10:28:19;;;;;;;;;43.50;36.00;;;;;16.95;45.01;101374.00;5072298;27;46304;-69
2022/05/02 10:30:56;;;;;;;;;37.75;34.25;;;;;17.03;44.56;101376.34;5068561;27;45662;-70
2022/05/02 10:33:35;;;;;;;;;38.50;35.00;;;;;17.07;44.66;101374.38;5059189;28;45244;-70
2022/05/02 10:36:04;;;;;;;;;40.50;35.75;;;;;17.12;44.47;101373.16;5061019;28;45440;-69
2022/05/02 10:38:30;;;;;;;;;42.00;35.25;;;;;17.15;44.15;101362.22;5074832;27;47485;-70
2022/05/02 10:41:15;;;;;;;;;33.50;30.75;;;;;17.14;44.39;101362.31;5073318;28;45719;-70
2022/05/02 10:43:49;;;;;;;;;34.25;31.50;;;;;17.21;44.41;101371.88;5060759;28;45407;-69
2022/05/02 10:46:15;;;;;;;;;40.25;33.50;;;;;17.25;44.47;101370.75;5074102;27;45386;-70
2022/05/02 10:48:55;;;;;;;;;30.25;28.50;;;;;17.29;44.38;101360.66;5084710;27;46213;-70
2022/05/02 10:51:37;;;;;;;;;33.75;30.75;;;;;17.33;44.83;101363.13;5059138;28;45490;-71
2022/05/02 10:54:35;;;;;;;;;34.25;30.00;;;;;17.39;43.84;101364.63;5072789;28;45526;-69
2022/05/02 10:57:12;;;;;;;;;34.50;32.00;;;;;17.40;43.88;101363.69;5064917;27;45388;-70
2022/05/02 10:59:44;;;;;;;;;36.75;32.25;;;;;17.45;43.44;101356.25;5069108;28;46461;-70
2022/05/02 11:02:13;;;;;;;;;37.25;32.50;;;;;17.46;43.86;101347.19;5069856;28;45829;-70
2022/05/02 11:04:53;;;;;;;;;31.50;30.50;;;;;17.50;43.83;101350.59;5068224;28;45457;-77
2022/05/02 11:07:34;;;;;;;;;33.25;31.00;;;;;17.55;43.56;101345.84;5067013;27;45182;-77
2022/05/02 11:10:07;;;;;;;;;39.00;32.00;;;;;17.60;43.99;101338.38;5062689;28;45513;-78
2022/05/02 11:12:40;;;;;;;;;36.00;34.75;;;;;17.62;43.54;101341.00;5058430;28;45660;-77
2022/05/02 11:15:24;;;;;;;;;30.00;29.00;;;;;17.67;44.01;101333.53;5059013;28;45473;-72
2022/05/02 11:21:32;;;;;;;;;34.00;33.00;;;;;17.73;43.34;101325.13;5056694;28;45456;-71
2022/05/02 11:24:10;;;;;;;;;31.50;30.75;;;;;17.76;43.37;101325.81;5058009;28;46183;-71
2022/05/02 11:26:45;;;;;;;;;32.50;29.75;;;;;17.80;43.96;101337.31;5069660;27;45541;-72
2022/05/02 11:29:59;;;;;;;;;32.00;29.25;;;;;17.84;43.40;101328.13;5061163;28;45447;-72
2022/05/02 11:32:37;;;;;;;;;33.75;30.50;;;;;17.87;43.02;101327.09;5061735;28;46126;-73
2022/05/02 11:35:20;;;;;;;;;35.25;33.50;;;;;17.88;43.20;101320.75;5070840;28;45628;-73
2022/05/02 11:38:09;;;;;;;;;31.50;30.75;;;;;17.89;43.18;101317.06;5065058;27;46350;-73
2022/05/02 11:40:43;;;;;;;;;27.00;26.50;;;;;17.88;42.86;101318.91;5059330;28;45580;-72
2022/05/02 11:43:11;;;;;;;;;33.25;28.50;;;;;17.85;43.42;101318.19;5057161;28;45574;-76
2022/05/02 11:45:49;;;;;;;;;31.00;29.00;;;;;17.85;43.19;101312.78;5075195;28;45485;-71
2022/05/02 11:48:21;;;;;;;;;31.75;30.75;;;;;17.91;42.78;101320.59;5062459;27;45539;-74
2022/05/02 11:50:48;;;;;;;;;30.50;30.00;;;;;17.84;42.93;101302.91;5061826;28;45429;-74
2022/05/02 11:53:16;;;;;;;;;24.75;24.25;;;;;17.95;42.45;101308.66;5071765;28;45519;-74
2022/05/02 11:55:46;;;;;;;;;25.50;25.50;;;;;17.93;42.30;101308.72;5067650;28;45477;-74
2022/05/02 11:58:23;;;;;;;;;26.50;26.50;;;;;17.99;42.21;101318.31;5082638;27;45485;-74
2022/05/02 12:00:58;;;;;;;;;27.75;26.25;;;;;18.00;41.83;101311.97;5070931;27;45308;-74
2022/05/02 12:03:26;;;;;;;;;30.00;29.25;;;;;18.00;42.46;101308.41;5065932;28;46031;-73
2022/05/02 12:05:55;;;;;;;;;37.25;32.75;;;;;18.03;42.66;101303.72;5074158;28;45688;-74